sensor_id;sensor_type;location;lat;lon;timestamp;P1;durP1;ratioP1;P2;durP2;ratioP2
19205;SDS011;59358;52.134;5.596;2023-04-02T00:01:19;28.25;;;20.15;;
19205;SDS011;59358;52.134;5.596;2023-04-02T00:04:11;27.20;;;19.63;;
19205;SDS011;59358;52.134;5.596;2023-04-02T00:06:40;27.58;;;18.73;;
19205;SDS011;59358;52.134;5.596;2023-04-02T00:09:19;29.73;;;19.83;;
19205;SDS011;59358;52.134;5.596;2023-04-02T00:12:16;27.85;;;19.92;;
19205;SDS011;59358;52.134;5.596;2023-04-02T00:14:46;29.80;;;18.98;;
19205;SDS011;59358;52.134;5.596;2023-04-02T00:17:16;31.27;;;20.92;;
19205;SDS011;59358;52.134;5.596;2023-04-02T00:19:44;33.58;;;21.67;;
19205;SDS011;59358;52.134;5.596;2023-04-02T00:22:17;27.35;;;20.05;;
19205;SDS011;59358;52.134;5.596;2023-04-02T00:24:44;27.58;;;19.90;;
19205;SDS011;59358;52.134;5.596;2023-04-02T00:27:12;32.08;;;21.55;;
19205;SDS011;59358;52.134;5.596;2023-04-02T00:29:45;35.83;;;22.88;;
19205;SDS011;59358;52.134;5.596;2023-04-02T00:32:14;31.45;;;22.00;;
19205;SDS011;59358;52.134;5.596;2023-04-02T00:34:46;39.47;;;24.02;;
19205;SDS011;59358;52.134;5.596;2023-04-02T00:37:14;30.45;;;21.02;;
19205;SDS011;59358;52.134;5.596;2023-04-02T00:39:47;28.60;;;20.08;;
19205;SDS011;59358;52.134;5.596;2023-04-02T00:42:15;30.42;;;21.35;;
19205;SDS011;59358;52.134;5.596;2023-04-02T00:44:44;32.42;;;21.15;;
19205;SDS011;59358;52.134;5.596;2023-04-02T00:47:14;30.70;;;21.08;;
19205;SDS011;59358;52.134;5.596;2023-04-02T00:49:45;31.38;;;20.58;;
19205;SDS011;59358;52.134;5.596;2023-04-02T00:52:17;28.38;;;21.15;;
19205;SDS011;59358;52.134;5.596;2023-04-02T00:54:47;28.35;;;19.35;;
19205;SDS011;59358;52.134;5.596;2023-04-02T00:57:18;27.55;;;18.90;;
19205;SDS011;59358;52.134;5.596;2023-04-02T00:59:55;28.10;;;18.38;;
19205;SDS011;59358;52.134;5.596;2023-04-02T01:02:28;22.48;;;15.93;;
19205;SDS011;59358;52.134;5.596;2023-04-02T01:04:57;23.42;;;16.88;;
19205;SDS011;59358;52.134;5.596;2023-04-02T01:07:33;23.83;;;16.70;;
19205;SDS011;59358;52.134;5.596;2023-04-02T01:10:17;28.10;;;18.52;;
19205;SDS011;59358;52.134;5.596;2023-04-02T01:12:59;28.33;;;18.92;;
19205;SDS011;59358;52.134;5.596;2023-04-02T01:15:36;30.35;;;21.15;;
19205;SDS011;59358;52.134;5.596;2023-04-02T01:18:10;30.98;;;21.23;;
19205;SDS011;59358;52.134;5.596;2023-04-02T01:20:59;31.33;;;21.15;;
19205;SDS011;59358;52.134;5.596;2023-04-02T01:23:37;27.40;;;19.98;;
19205;SDS011;59358;52.134;5.596;2023-04-02T01:26:20;30.23;;;19.60;;
19205;SDS011;59358;52.134;5.596;2023-04-02T01:29:02;27.63;;;20.52;;
19205;SDS011;59358;52.134;5.596;2023-04-02T01:31:33;28.20;;;19.77;;
19205;SDS011;59358;52.134;5.596;2023-04-02T01:34:02;26.23;;;18.95;;
19205;SDS011;59358;52.134;5.596;2023-04-02T01:36:34;32.72;;;18.42;;
19205;SDS011;59358;52.134;5.596;2023-04-02T01:39:08;24.42;;;17.67;;
19205;SDS011;59358;52.134;5.596;2023-04-02T01:41:42;26.58;;;18.52;;
19205;SDS011;59358;52.134;5.596;2023-04-02T01:44:16;30.42;;;17.38;;
19205;SDS011;59358;52.134;5.596;2023-04-02T01:46:49;32.72;;;19.95;;
19205;SDS011;59358;52.134;5.596;2023-04-02T01:49:17;29.17;;;18.63;;
19205;SDS011;59358;52.134;5.596;2023-04-02T01:51:49;29.67;;;19.67;;
19205;SDS011;59358;52.134;5.596;2023-04-02T01:54:19;23.80;;;17.80;;
19205;SDS011;59358;52.134;5.596;2023-04-02T01:56:46;29.98;;;18.33;;
19205;SDS011;59358;52.134;5.596;2023-04-02T01:59:14;25.65;;;17.95;;
19205;SDS011;59358;52.134;5.596;2023-04-02T02:01:46;25.55;;;17.80;;
19205;SDS011;59358;52.134;5.596;2023-04-02T02:04:18;23.08;;;17.27;;
19205;SDS011;59358;52.134;5.596;2023-04-02T02:06:45;23.85;;;17.70;;
19205;SDS011;59358;52.134;5.596;2023-04-02T02:09:14;25.25;;;17.23;;
19205;SDS011;59358;52.134;5.596;2023-04-02T02:11:47;25.17;;;16.83;;
19205;SDS011;59358;52.134;5.596;2023-04-02T02:14:14;23.63;;;16.83;;
19205;SDS011;59358;52.134;5.596;2023-04-02T02:16:44;22.65;;;16.17;;
19205;SDS011;59358;52.134;5.596;2023-04-02T02:19:17;21.33;;;15.23;;
19205;SDS011;59358;52.134;5.596;2023-04-02T02:21:49;24.85;;;17.30;;
19205;SDS011;59358;52.134;5.596;2023-04-02T02:24:19;24.33;;;17.00;;
19205;SDS011;59358;52.134;5.596;2023-04-02T02:26:50;28.92;;;17.33;;
19205;SDS011;59358;52.134;5.596;2023-04-02T02:29:29;21.27;;;15.05;;
19205;SDS011;59358;52.134;5.596;2023-04-02T02:31:57;22.52;;;16.30;;
19205;SDS011;59358;52.134;5.596;2023-04-02T02:34:28;27.23;;;17.17;;
19205;SDS011;59358;52.134;5.596;2023-04-02T02:37:01;25.98;;;16.40;;
19205;SDS011;59358;52.134;5.596;2023-04-02T02:39:32;26.60;;;16.20;;
19205;SDS011;59358;52.134;5.596;2023-04-02T02:42:04;28.38;;;17.00;;
19205;SDS011;59358;52.134;5.596;2023-04-02T02:44:38;25.95;;;17.80;;
19205;SDS011;59358;52.134;5.596;2023-04-02T02:47:11;24.80;;;15.95;;
19205;SDS011;59358;52.134;5.596;2023-04-02T02:49:41;25.38;;;16.50;;
19205;SDS011;59358;52.134;5.596;2023-04-02T02:52:14;27.60;;;16.67;;
19205;SDS011;59358;52.134;5.596;2023-04-02T02:54:43;29.58;;;16.60;;
19205;SDS011;59358;52.134;5.596;2023-04-02T02:57:16;23.63;;;16.20;;
19205;SDS011;59358;52.134;5.596;2023-04-02T02:59:47;28.00;;;15.90;;
19205;SDS011;59358;52.134;5.596;2023-04-02T03:02:16;25.98;;;15.98;;
19205;SDS011;59358;52.134;5.596;2023-04-02T03:04:45;27.50;;;15.45;;
19205;SDS011;59358;52.134;5.596;2023-04-02T03:07:13;26.52;;;16.27;;
19205;SDS011;59358;52.134;5.596;2023-04-02T03:09:44;28.50;;;16.35;;
19205;SDS011;59358;52.134;5.596;2023-04-02T03:12:26;27.42;;;16.13;;
19205;SDS011;59358;52.134;5.596;2023-04-02T03:15:02;35.55;;;18.58;;
19205;SDS011;59358;52.134;5.596;2023-04-02T03:17:37;26.80;;;17.52;;
19205;SDS011;59358;52.134;5.596;2023-04-02T03:20:10;26.17;;;16.95;;
19205;SDS011;59358;52.134;5.596;2023-04-02T03:22:42;22.88;;;16.15;;
19205;SDS011;59358;52.134;5.596;2023-04-02T03:25:16;22.77;;;14.93;;
19205;SDS011;59358;52.134;5.596;2023-04-02T03:27:50;23.08;;;14.98;;
19205;SDS011;59358;52.134;5.596;2023-04-02T03:30:31;22.30;;;14.90;;
19205;SDS011;59358;52.134;5.596;2023-04-02T03:33:04;25.30;;;14.90;;
19205;SDS011;59358;52.134;5.596;2023-04-02T03:35:39;26.30;;;15.57;;
19205;SDS011;59358;52.134;5.596;2023-04-02T03:38:10;24.23;;;14.77;;
19205;SDS011;59358;52.134;5.596;2023-04-02T03:40:42;24.73;;;16.02;;
19205;SDS011;59358;52.134;5.596;2023-04-02T03:43:17;27.92;;;16.33;;
19205;SDS011;59358;52.134;5.596;2023-04-02T03:45:48;24.98;;;14.90;;
19205;SDS011;59358;52.134;5.596;2023-04-02T03:48:19;25.23;;;15.85;;
19205;SDS011;59358;52.134;5.596;2023-04-02T03:50:54;24.58;;;15.60;;
19205;SDS011;59358;52.134;5.596;2023-04-02T03:53:25;31.38;;;15.15;;
19205;SDS011;59358;52.134;5.596;2023-04-02T03:55:56;22.92;;;15.23;;
19205;SDS011;59358;52.134;5.596;2023-04-02T03:58:24;25.02;;;14.98;;
19205;SDS011;59358;52.134;5.596;2023-04-02T04:00:58;20.70;;;14.32;;
19205;SDS011;59358;52.134;5.596;2023-04-02T04:03:35;20.95;;;13.85;;
19205;SDS011;59358;52.134;5.596;2023-04-02T04:06:05;20.23;;;14.18;;
19205;SDS011;59358;52.134;5.596;2023-04-02T04:08:36;20.38;;;14.73;;
19205;SDS011;59358;52.134;5.596;2023-04-02T04:11:09;24.70;;;14.55;;
19205;SDS011;59358;52.134;5.596;2023-04-02T04:13:42;20.92;;;14.27;;
19205;SDS011;59358;52.134;5.596;2023-04-02T04:16:12;24.13;;;15.88;;
19205;SDS011;59358;52.134;5.596;2023-04-02T04:18:42;19.67;;;13.40;;
19205;SDS011;59358;52.134;5.596;2023-04-02T04:21:18;23.13;;;13.85;;
19205;SDS011;59358;52.134;5.596;2023-04-02T04:23:54;21.50;;;13.63;;
19205;SDS011;59358;52.134;5.596;2023-04-02T04:26:23;18.88;;;13.05;;
19205;SDS011;59358;52.134;5.596;2023-04-02T04:28:56;17.25;;;11.05;;
19205;SDS011;59358;52.134;5.596;2023-04-02T04:31:31;16.35;;;11.30;;
19205;SDS011;59358;52.134;5.596;2023-04-02T04:34:04;13.45;;;11.13;;
19205;SDS011;59358;52.134;5.596;2023-04-02T04:36:40;15.93;;;11.48;;
19205;SDS011;59358;52.134;5.596;2023-04-02T04:39:13;12.55;;;9.07;;
19205;SDS011;59358;52.134;5.596;2023-04-02T04:41:45;15.90;;;9.27;;
19205;SDS011;59358;52.134;5.596;2023-04-02T04:44:15;15.30;;;9.27;;
19205;SDS011;59358;52.134;5.596;2023-04-02T04:46:50;18.67;;;8.05;;
19205;SDS011;59358;52.134;5.596;2023-04-02T04:49:24;13.85;;;7.95;;
19205;SDS011;59358;52.134;5.596;2023-04-02T04:51:58;14.13;;;8.95;;
19205;SDS011;59358;52.134;5.596;2023-04-02T04:54:35;12.57;;;6.15;;
19205;SDS011;59358;52.134;5.596;2023-04-02T04:57:04;10.65;;;6.13;;
19205;SDS011;59358;52.134;5.596;2023-04-02T04:59:41;9.73;;;5.70;;
19205;SDS011;59358;52.134;5.596;2023-04-02T05:02:15;9.38;;;6.35;;
19205;SDS011;59358;52.134;5.596;2023-04-02T05:04:47;14.20;;;6.70;;
19205;SDS011;59358;52.134;5.596;2023-04-02T05:07:16;11.57;;;6.35;;
19205;SDS011;59358;52.134;5.596;2023-04-02T05:09:49;9.80;;;6.25;;
19205;SDS011;59358;52.134;5.596;2023-04-02T05:12:20;14.45;;;6.50;;
19205;SDS011;59358;52.134;5.596;2023-04-02T05:14:59;9.32;;;6.55;;
19205;SDS011;59358;52.134;5.596;2023-04-02T05:17:31;11.60;;;6.70;;
19205;SDS011;59358;52.134;5.596;2023-04-02T05:20:02;15.63;;;7.00;;
19205;SDS011;59358;52.134;5.596;2023-04-02T05:22:41;9.43;;;5.90;;
19205;SDS011;59358;52.134;5.596;2023-04-02T05:25:18;8.18;;;5.43;;
19205;SDS011;59358;52.134;5.596;2023-04-02T05:27:49;11.15;;;5.50;;
19205;SDS011;59358;52.134;5.596;2023-04-02T05:30:31;10.43;;;4.93;;
19205;SDS011;59358;52.134;5.596;2023-04-02T05:33:14;9.45;;;4.47;;
19205;SDS011;59358;52.134;5.596;2023-04-02T05:35:45;17.60;;;4.28;;
19205;SDS011;59358;52.134;5.596;2023-04-02T05:38:16;10.70;;;4.20;;
19205;SDS011;59358;52.134;5.596;2023-04-02T05:40:46;9.05;;;4.85;;
19205;SDS011;59358;52.134;5.596;2023-04-02T05:43:17;11.43;;;4.53;;
19205;SDS011;59358;52.134;5.596;2023-04-02T05:45:51;9.60;;;5.00;;
19205;SDS011;59358;52.134;5.596;2023-04-02T05:48:21;9.98;;;4.45;;
19205;SDS011;59358;52.134;5.596;2023-04-02T05:50:53;7.82;;;3.67;;
19205;SDS011;59358;52.134;5.596;2023-04-02T05:53:24;10.10;;;5.07;;
19205;SDS011;59358;52.134;5.596;2023-04-02T05:55:55;9.77;;;4.15;;
19205;SDS011;59358;52.134;5.596;2023-04-02T05:58:26;8.68;;;3.92;;
19205;SDS011;59358;52.134;5.596;2023-04-02T06:00:59;6.90;;;4.05;;
19205;SDS011;59358;52.134;5.596;2023-04-02T06:03:48;8.50;;;4.22;;
19205;SDS011;59358;52.134;5.596;2023-04-02T06:06:23;13.13;;;3.67;;
19205;SDS011;59358;52.134;5.596;2023-04-02T06:09:08;8.55;;;4.85;;
19205;SDS011;59358;52.134;5.596;2023-04-02T06:11:40;8.40;;;4.60;;
19205;SDS011;59358;52.134;5.596;2023-04-02T06:14:11;13.25;;;5.15;;
19205;SDS011;59358;52.134;5.596;2023-04-02T06:16:39;10.98;;;5.05;;
19205;SDS011;59358;52.134;5.596;2023-04-02T06:19:10;14.43;;;4.63;;
19205;SDS011;59358;52.134;5.596;2023-04-02T06:21:44;12.40;;;5.22;;
19205;SDS011;59358;52.134;5.596;2023-04-02T06:24:14;11.65;;;4.68;;
19205;SDS011;59358;52.134;5.596;2023-04-02T06:26:44;8.13;;;4.30;;
19205;SDS011;59358;52.134;5.596;2023-04-02T06:29:17;11.40;;;4.43;;
19205;SDS011;59358;52.134;5.596;2023-04-02T06:31:50;10.85;;;5.07;;
19205;SDS011;59358;52.134;5.596;2023-04-02T06:34:22;10.35;;;5.85;;
19205;SDS011;59358;52.134;5.596;2023-04-02T06:36:53;10.45;;;5.57;;
19205;SDS011;59358;52.134;5.596;2023-04-02T06:39:22;8.18;;;5.85;;
19205;SDS011;59358;52.134;5.596;2023-04-02T06:41:52;10.77;;;5.47;;
19205;SDS011;59358;52.134;5.596;2023-04-02T06:44:23;6.80;;;5.70;;
19205;SDS011;59358;52.134;5.596;2023-04-02T06:46:52;10.48;;;6.50;;
19205;SDS011;59358;52.134;5.596;2023-04-02T06:49:29;10.63;;;5.95;;
19205;SDS011;59358;52.134;5.596;2023-04-02T06:52:01;8.10;;;5.82;;
19205;SDS011;59358;52.134;5.596;2023-04-02T06:54:30;11.13;;;6.25;;
19205;SDS011;59358;52.134;5.596;2023-04-02T06:56:57;11.40;;;6.72;;
19205;SDS011;59358;52.134;5.596;2023-04-02T06:59:24;11.70;;;6.38;;
19205;SDS011;59358;52.134;5.596;2023-04-02T07:01:52;13.70;;;7.18;;
19205;SDS011;59358;52.134;5.596;2023-04-02T07:04:22;10.60;;;7.13;;
19205;SDS011;59358;52.134;5.596;2023-04-02T07:06:51;11.52;;;6.97;;
19205;SDS011;59358;52.134;5.596;2023-04-02T07:09:18;10.27;;;6.50;;
19205;SDS011;59358;52.134;5.596;2023-04-02T07:11:45;9.80;;;7.00;;
19205;SDS011;59358;52.134;5.596;2023-04-02T07:14:12;12.43;;;8.00;;
19205;SDS011;59358;52.134;5.596;2023-04-02T07:16:40;8.13;;;7.20;;
19205;SDS011;59358;52.134;5.596;2023-04-02T07:19:11;15.98;;;7.72;;
19205;SDS011;59358;52.134;5.596;2023-04-02T07:21:45;11.63;;;7.55;;
19205;SDS011;59358;52.134;5.596;2023-04-02T07:24:12;12.27;;;7.75;;
19205;SDS011;59358;52.134;5.596;2023-04-02T07:26:39;14.45;;;7.65;;
19205;SDS011;59358;52.134;5.596;2023-04-02T07:29:08;11.07;;;7.45;;
19205;SDS011;59358;52.134;5.596;2023-04-02T07:31:38;16.08;;;7.75;;
19205;SDS011;59358;52.134;5.596;2023-04-02T07:34:05;10.73;;;6.35;;
19205;SDS011;59358;52.134;5.596;2023-04-02T07:36:33;12.88;;;7.38;;
19205;SDS011;59358;52.134;5.596;2023-04-02T07:39:01;16.80;;;7.22;;
19205;SDS011;59358;52.134;5.596;2023-04-02T07:41:29;10.70;;;7.32;;
19205;SDS011;59358;52.134;5.596;2023-04-02T07:43:55;13.90;;;7.40;;
19205;SDS011;59358;52.134;5.596;2023-04-02T07:46:22;13.80;;;7.32;;
19205;SDS011;59358;52.134;5.596;2023-04-02T07:48:49;12.73;;;7.50;;
19205;SDS011;59358;52.134;5.596;2023-04-02T07:51:17;11.85;;;7.47;;
19205;SDS011;59358;52.134;5.596;2023-04-02T07:53:45;8.75;;;6.18;;
19205;SDS011;59358;52.134;5.596;2023-04-02T07:56:17;10.55;;;6.32;;
19205;SDS011;59358;52.134;5.596;2023-04-02T07:58:45;8.75;;;6.65;;
19205;SDS011;59358;52.134;5.596;2023-04-02T08:01:16;7.70;;;5.97;;
19205;SDS011;59358;52.134;5.596;2023-04-02T08:03:44;7.38;;;5.82;;
19205;SDS011;59358;52.134;5.596;2023-04-02T08:06:12;14.45;;;6.53;;
19205;SDS011;59358;52.134;5.596;2023-04-02T08:08:39;7.60;;;5.57;;
19205;SDS011;59358;52.134;5.596;2023-04-02T08:11:06;11.43;;;7.03;;
19205;SDS011;59358;52.134;5.596;2023-04-02T08:13:35;8.98;;;6.25;;
19205;SDS011;59358;52.134;5.596;2023-04-02T08:16:03;7.65;;;5.50;;
19205;SDS011;59358;52.134;5.596;2023-04-02T08:18:31;9.50;;;5.53;;
19205;SDS011;59358;52.134;5.596;2023-04-02T08:20:58;8.90;;;5.40;;
19205;SDS011;59358;52.134;5.596;2023-04-02T08:23:25;6.72;;;4.80;;
19205;SDS011;59358;52.134;5.596;2023-04-02T08:25:53;10.98;;;5.55;;
19205;SDS011;59358;52.134;5.596;2023-04-02T08:28:20;7.32;;;4.68;;
19205;SDS011;59358;52.134;5.596;2023-04-02T08:30:49;7.32;;;4.57;;
19205;SDS011;59358;52.134;5.596;2023-04-02T08:33:16;8.73;;;4.85;;
19205;SDS011;59358;52.134;5.596;2023-04-02T08:35:43;9.40;;;4.25;;
19205;SDS011;59358;52.134;5.596;2023-04-02T08:38:12;10.43;;;4.60;;
19205;SDS011;59358;52.134;5.596;2023-04-02T08:40:40;7.40;;;4.25;;
19205;SDS011;59358;52.134;5.596;2023-04-02T08:43:14;5.90;;;4.15;;
19205;SDS011;59358;52.134;5.596;2023-04-02T08:45:57;9.57;;;4.57;;
19205;SDS011;59358;52.134;5.596;2023-04-02T08:48:31;5.63;;;3.78;;
19205;SDS011;59358;52.134;5.596;2023-04-02T08:51:00;7.03;;;3.50;;
19205;SDS011;59358;52.134;5.596;2023-04-02T08:53:28;8.95;;;4.30;;
19205;SDS011;59358;52.134;5.596;2023-04-02T08:55:59;6.40;;;3.58;;
19205;SDS011;59358;52.134;5.596;2023-04-02T08:58:36;8.43;;;3.92;;
19205;SDS011;59358;52.134;5.596;2023-04-02T09:01:09;7.35;;;3.53;;
19205;SDS011;59358;52.134;5.596;2023-04-02T09:03:44;4.07;;;2.85;;
19205;SDS011;59358;52.134;5.596;2023-04-02T09:06:13;4.20;;;2.85;;
19205;SDS011;59358;52.134;5.596;2023-04-02T09:08:43;5.85;;;2.88;;
19205;SDS011;59358;52.134;5.596;2023-04-02T09:11:13;6.20;;;2.95;;
19205;SDS011;59358;52.134;5.596;2023-04-02T09:13:49;5.60;;;2.88;;
19205;SDS011;59358;52.134;5.596;2023-04-02T09:16:23;7.57;;;2.40;;
19205;SDS011;59358;52.134;5.596;2023-04-02T09:19:01;3.97;;;2.28;;
19205;SDS011;59358;52.134;5.596;2023-04-02T09:21:35;3.78;;;2.22;;
19205;SDS011;59358;52.134;5.596;2023-04-02T09:24:07;6.80;;;2.85;;
19205;SDS011;59358;52.134;5.596;2023-04-02T09:26:37;5.55;;;2.50;;
19205;SDS011;59358;52.134;5.596;2023-04-02T09:29:14;4.35;;;2.03;;
19205;SDS011;59358;52.134;5.596;2023-04-02T09:31:56;3.67;;;2.35;;
19205;SDS011;59358;52.134;5.596;2023-04-02T09:34:32;4.55;;;2.60;;
19205;SDS011;59358;52.134;5.596;2023-04-02T09:37:05;5.20;;;2.75;;
19205;SDS011;59358;52.134;5.596;2023-04-02T09:39:33;4.38;;;2.22;;
19205;SDS011;59358;52.134;5.596;2023-04-02T09:42:04;6.18;;;3.13;;
19205;SDS011;59358;52.134;5.596;2023-04-02T09:44:32;8.20;;;4.72;;
19205;SDS011;59358;52.134;5.596;2023-04-02T09:47:02;9.27;;;4.18;;
19205;SDS011;59358;52.134;5.596;2023-04-02T09:49:32;5.43;;;2.67;;
19205;SDS011;59358;52.134;5.596;2023-04-02T09:52:07;4.68;;;2.30;;
19205;SDS011;59358;52.134;5.596;2023-04-02T09:54:45;7.20;;;2.70;;
19205;SDS011;59358;52.134;5.596;2023-04-02T09:57:17;3.83;;;1.92;;
19205;SDS011;59358;52.134;5.596;2023-04-02T10:02:44;6.15;;;2.88;;
19205;SDS011;59358;52.134;5.596;2023-04-02T10:05:17;7.30;;;3.15;;
19205;SDS011;59358;52.134;5.596;2023-04-02T10:07:46;4.97;;;2.50;;
19205;SDS011;59358;52.134;5.596;2023-04-02T10:10:18;8.88;;;3.50;;
19205;SDS011;59358;52.134;5.596;2023-04-02T10:12:48;8.35;;;2.47;;
19205;SDS011;59358;52.134;5.596;2023-04-02T10:15:23;11.90;;;3.10;;
19205;SDS011;59358;52.134;5.596;2023-04-02T10:17:58;7.75;;;3.40;;
19205;SDS011;59358;52.134;5.596;2023-04-02T10:20:31;5.55;;;2.90;;
19205;SDS011;59358;52.134;5.596;2023-04-02T10:23:01;8.18;;;3.08;;
19205;SDS011;59358;52.134;5.596;2023-04-02T10:25:29;3.47;;;2.50;;
19205;SDS011;59358;52.134;5.596;2023-04-02T10:28:06;5.18;;;2.38;;
19205;SDS011;59358;52.134;5.596;2023-04-02T10:30:47;6.68;;;2.53;;
19205;SDS011;59358;52.134;5.596;2023-04-02T10:33:22;5.80;;;2.70;;
19205;SDS011;59358;52.134;5.596;2023-04-02T10:35:52;5.25;;;2.63;;
19205;SDS011;59358;52.134;5.596;2023-04-02T10:38:28;4.00;;;2.67;;
19205;SDS011;59358;52.134;5.596;2023-04-02T10:41:03;3.65;;;2.50;;
19205;SDS011;59358;52.134;5.596;2023-04-02T10:43:55;4.82;;;2.35;;
19205;SDS011;59358;52.134;5.596;2023-04-02T10:46:35;4.25;;;2.30;;
19205;SDS011;59358;52.134;5.596;2023-04-02T10:49:12;4.05;;;2.20;;
19205;SDS011;59358;52.134;5.596;2023-04-02T10:51:49;3.53;;;2.30;;
19205;SDS011;59358;52.134;5.596;2023-04-02T10:54:29;10.05;;;2.60;;
19205;SDS011;59358;52.134;5.596;2023-04-02T10:57:04;4.70;;;2.50;;
19205;SDS011;59358;52.134;5.596;2023-04-02T10:59:37;5.80;;;2.38;;
19205;SDS011;59358;52.134;5.596;2023-04-02T11:02:16;5.82;;;2.40;;
19205;SDS011;59358;52.134;5.596;2023-04-02T11:04:52;6.82;;;2.15;;
19205;SDS011;59358;52.134;5.596;2023-04-02T11:07:21;6.68;;;2.00;;
19205;SDS011;59358;52.134;5.596;2023-04-02T11:09:52;4.90;;;2.35;;
19205;SDS011;59358;52.134;5.596;2023-04-02T11:12:22;2.85;;;1.80;;
19205;SDS011;59358;52.134;5.596;2023-04-02T11:14:51;4.68;;;2.15;;
19205;SDS011;59358;52.134;5.596;2023-04-02T11:17:20;2.83;;;1.88;;
19205;SDS011;59358;52.134;5.596;2023-04-02T11:19:48;4.57;;;2.15;;
19205;SDS011;59358;52.134;5.596;2023-04-02T11:22:17;4.93;;;2.45;;
19205;SDS011;59358;52.134;5.596;2023-04-02T11:24:46;4.95;;;2.25;;
19205;SDS011;59358;52.134;5.596;2023-04-02T11:27:20;3.10;;;2.28;;
19205;SDS011;59358;52.134;5.596;2023-04-02T11:29:51;5.55;;;1.98;;
19205;SDS011;59358;52.134;5.596;2023-04-02T11:32:25;4.40;;;2.13;;
19205;SDS011;59358;52.134;5.596;2023-04-02T11:34:57;3.88;;;2.03;;
19205;SDS011;59358;52.134;5.596;2023-04-02T11:37:32;8.32;;;2.80;;
19205;SDS011;59358;52.134;5.596;2023-04-02T11:40:00;3.13;;;2.03;;
19205;SDS011;59358;52.134;5.596;2023-04-02T11:42:33;5.00;;;1.83;;
19205;SDS011;59358;52.134;5.596;2023-04-02T11:50:53;6.97;;;2.30;;
19205;SDS011;59358;52.134;5.596;2023-04-02T11:53:23;5.43;;;2.28;;
19205;SDS011;59358;52.134;5.596;2023-04-02T11:56:16;4.85;;;2.47;;
19205;SDS011;59358;52.134;5.596;2023-04-02T11:58:58;4.70;;;2.08;;
19205;SDS011;59358;52.134;5.596;2023-04-02T12:01:38;3.70;;;2.13;;
19205;SDS011;59358;52.134;5.596;2023-04-02T12:04:33;4.38;;;1.95;;
19205;SDS011;59358;52.134;5.596;2023-04-02T12:07:23;4.63;;;2.53;;
19205;SDS011;59358;52.134;5.596;2023-04-02T12:10:02;6.00;;;3.50;;
19205;SDS011;59358;52.134;5.596;2023-04-02T12:12:32;8.90;;;2.85;;
19205;SDS011;59358;52.134;5.596;2023-04-02T12:15:03;5.75;;;2.13;;
19205;SDS011;59358;52.134;5.596;2023-04-02T12:17:35;4.32;;;1.70;;
19205;SDS011;59358;52.134;5.596;2023-04-02T12:20:16;4.00;;;1.90;;
19205;SDS011;59358;52.134;5.596;2023-04-02T12:22:46;3.53;;;1.67;;
19205;SDS011;59358;52.134;5.596;2023-04-02T12:25:20;4.93;;;1.55;;
19205;SDS011;59358;52.134;5.596;2023-04-02T12:28:01;3.42;;;1.90;;
19205;SDS011;59358;52.134;5.596;2023-04-02T12:30:29;6.18;;;1.77;;
19205;SDS011;59358;52.134;5.596;2023-04-02T12:32:56;2.15;;;1.50;;
19205;SDS011;59358;52.134;5.596;2023-04-02T12:35:38;5.10;;;2.08;;
19205;SDS011;59358;52.134;5.596;2023-04-02T12:38:15;6.63;;;1.52;;
19205;SDS011;59358;52.134;5.596;2023-04-02T12:40:51;3.97;;;1.90;;
19205;SDS011;59358;52.134;5.596;2023-04-02T12:43:25;4.93;;;2.25;;
19205;SDS011;59358;52.134;5.596;2023-04-02T12:45:53;4.00;;;2.00;;
19205;SDS011;59358;52.134;5.596;2023-04-02T12:48:22;4.05;;;1.90;;
19205;SDS011;59358;52.134;5.596;2023-04-02T12:50:51;7.68;;;2.30;;
19205;SDS011;59358;52.134;5.596;2023-04-02T12:53:19;4.53;;;2.08;;
19205;SDS011;59358;52.134;5.596;2023-04-02T12:55:50;3.40;;;1.48;;
19205;SDS011;59358;52.134;5.596;2023-04-02T12:58:23;3.40;;;1.88;;
19205;SDS011;59358;52.134;5.596;2023-04-02T13:01:07;4.97;;;1.38;;
19205;SDS011;59358;52.134;5.596;2023-04-02T13:03:35;4.03;;;1.90;;
19205;SDS011;59358;52.134;5.596;2023-04-02T13:06:02;4.03;;;1.85;;
19205;SDS011;59358;52.134;5.596;2023-04-02T13:08:30;4.18;;;1.83;;
19205;SDS011;59358;52.134;5.596;2023-04-02T13:11:05;5.07;;;1.58;;
19205;SDS011;59358;52.134;5.596;2023-04-02T13:13:33;4.47;;;1.90;;
19205;SDS011;59358;52.134;5.596;2023-04-02T13:16:05;10.02;;;2.20;;
19205;SDS011;59358;52.134;5.596;2023-04-02T13:18:46;3.25;;;1.95;;
19205;SDS011;59358;52.134;5.596;2023-04-02T13:21:22;6.00;;;2.20;;
19205;SDS011;59358;52.134;5.596;2023-04-02T13:23:51;5.32;;;2.05;;
19205;SDS011;59358;52.134;5.596;2023-04-02T13:26:21;4.10;;;1.50;;
19205;SDS011;59358;52.134;5.596;2023-04-02T13:28:56;2.97;;;1.60;;
19205;SDS011;59358;52.134;5.596;2023-04-02T13:31:24;4.38;;;1.83;;
19205;SDS011;59358;52.134;5.596;2023-04-02T13:33:52;5.50;;;2.05;;
19205;SDS011;59358;52.134;5.596;2023-04-02T13:36:19;5.50;;;1.75;;
19205;SDS011;59358;52.134;5.596;2023-04-02T13:38:46;3.65;;;1.33;;
19205;SDS011;59358;52.134;5.596;2023-04-02T13:41:16;2.55;;;1.40;;
19205;SDS011;59358;52.134;5.596;2023-04-02T13:43:48;3.88;;;1.92;;
19205;SDS011;59358;52.134;5.596;2023-04-02T13:46:16;3.45;;;1.60;;
19205;SDS011;59358;52.134;5.596;2023-04-02T13:48:49;2.83;;;1.40;;
19205;SDS011;59358;52.134;5.596;2023-04-02T13:51:17;6.57;;;2.13;;
19205;SDS011;59358;52.134;5.596;2023-04-02T13:53:45;4.10;;;1.70;;
19205;SDS011;59358;52.134;5.596;2023-04-02T13:56:13;4.50;;;1.92;;
19205;SDS011;59358;52.134;5.596;2023-04-02T13:58:40;2.88;;;1.60;;
19205;SDS011;59358;52.134;5.596;2023-04-02T14:01:08;3.97;;;2.08;;
19205;SDS011;59358;52.134;5.596;2023-04-02T14:03:35;4.20;;;1.50;;
19205;SDS011;59358;52.134;5.596;2023-04-02T14:06:06;4.53;;;1.60;;
19205;SDS011;59358;52.134;5.596;2023-04-02T14:08:43;1.38;;;1.10;;
19205;SDS011;59358;52.134;5.596;2023-04-02T14:11:23;3.85;;;1.40;;
19205;SDS011;59358;52.134;5.596;2023-04-02T14:17:09;4.78;;;1.40;;
19205;SDS011;59358;52.134;5.596;2023-04-02T14:19:48;4.85;;;1.67;;
19205;SDS011;59358;52.134;5.596;2023-04-02T14:22:30;4.80;;;1.70;;
19205;SDS011;59358;52.134;5.596;2023-04-02T14:25:10;3.65;;;1.40;;
19205;SDS011;59358;52.134;5.596;2023-04-02T14:27:46;4.45;;;1.75;;
19205;SDS011;59358;52.134;5.596;2023-04-02T14:30:21;1.65;;;1.52;;
19205;SDS011;59358;52.134;5.596;2023-04-02T14:32:54;2.72;;;1.60;;
19205;SDS011;59358;52.134;5.596;2023-04-02T14:35:26;4.75;;;2.40;;
19205;SDS011;59358;52.134;5.596;2023-04-02T14:38:00;3.72;;;1.73;;
19205;SDS011;59358;52.134;5.596;2023-04-02T14:40:35;4.00;;;1.92;;
19205;SDS011;59358;52.134;5.596;2023-04-02T14:43:10;3.35;;;1.98;;
19205;SDS011;59358;52.134;5.596;2023-04-02T14:45:56;2.95;;;1.48;;
19205;SDS011;59358;52.134;5.596;2023-04-02T14:48:39;4.30;;;1.67;;
19205;SDS011;59358;52.134;5.596;2023-04-02T14:51:13;2.83;;;1.88;;
19205;SDS011;59358;52.134;5.596;2023-04-02T14:53:46;2.30;;;1.67;;
19205;SDS011;59358;52.134;5.596;2023-04-02T14:56:18;2.40;;;1.40;;
19205;SDS011;59358;52.134;5.596;2023-04-02T14:58:47;2.47;;;1.63;;
19205;SDS011;59358;52.134;5.596;2023-04-02T15:01:20;3.78;;;1.77;;
19205;SDS011;59358;52.134;5.596;2023-04-02T15:03:54;2.67;;;1.50;;
19205;SDS011;59358;52.134;5.596;2023-04-02T15:06:23;3.90;;;1.80;;
19205;SDS011;59358;52.134;5.596;2023-04-02T15:08:53;5.72;;;2.03;;
19205;SDS011;59358;52.134;5.596;2023-04-02T15:11:27;2.63;;;1.50;;
19205;SDS011;59358;52.134;5.596;2023-04-02T15:13:58;4.53;;;2.08;;
19205;SDS011;59358;52.134;5.596;2023-04-02T15:16:30;2.58;;;1.75;;
19205;SDS011;59358;52.134;5.596;2023-04-02T15:19:03;3.33;;;1.85;;
19205;SDS011;59358;52.134;5.596;2023-04-02T15:21:44;4.93;;;1.90;;